sensor_id;sensor_type;location;lat;lon;timestamp;P1;durP1;ratioP1;P2;durP2;ratioP2
9720;SDS011;4899;42.644;23.366;2023-03-01T00:01:15;4.40;;;4.00;;
9720;SDS011;4899;42.644;23.366;2023-03-01T00:03:42;4.63;;;4.23;;
9720;SDS011;4899;42.644;23.366;2023-03-01T00:06:08;4.27;;;3.87;;
9720;SDS011;4899;42.644;23.366;2023-03-01T00:08:34;4.63;;;4.20;;
9720;SDS011;4899;42.644;23.366;2023-03-01T00:11:01;4.37;;;3.97;;
9720;SDS011;4899;42.644;23.366;2023-03-01T00:13:33;4.27;;;3.90;;
9720;SDS011;4899;42.644;23.366;2023-03-01T00:16:01;4.20;;;3.90;;
9720;SDS011;4899;42.644;23.366;2023-03-01T00:18:28;4.03;;;3.73;;
9720;SDS011;4899;42.644;23.366;2023-03-01T00:20:54;3.80;;;3.50;;
9720;SDS011;4899;42.644;23.366;2023-03-01T00:23:21;4.23;;;3.83;;
9720;SDS011;4899;42.644;23.366;2023-03-01T00:25:47;4.47;;;4.07;;
9720;SDS011;4899;42.644;23.366;2023-03-01T00:28:12;4.20;;;3.90;;
9720;SDS011;4899;42.644;23.366;2023-03-01T00:30:38;3.90;;;3.60;;
9720;SDS011;4899;42.644;23.366;2023-03-01T00:33:03;3.50;;;3.30;;
9720;SDS011;4899;42.644;23.366;2023-03-01T00:35:29;3.97;;;3.67;;
9720;SDS011;4899;42.644;23.366;2023-03-01T00:37:54;4.07;;;3.77;;
9720;SDS011;4899;42.644;23.366;2023-03-01T00:40:28;3.57;;;3.23;;
9720;SDS011;4899;42.644;23.366;2023-03-01T00:42:55;3.73;;;3.43;;
9720;SDS011;4899;42.644;23.366;2023-03-01T00:45:21;3.93;;;3.63;;
9720;SDS011;4899;42.644;23.366;2023-03-01T00:47:47;4.07;;;3.73;;
9720;SDS011;4899;42.644;23.366;2023-03-01T00:50:14;3.70;;;3.40;;
9720;SDS011;4899;42.644;23.366;2023-03-01T00:52:39;3.50;;;3.20;;
9720;SDS011;4899;42.644;23.366;2023-03-01T00:55:05;3.93;;;3.43;;
9720;SDS011;4899;42.644;23.366;2023-03-01T00:57:31;3.43;;;3.20;;
9720;SDS011;4899;42.644;23.366;2023-03-01T00:59:57;3.53;;;3.00;;
9720;SDS011;4899;42.644;23.366;2023-03-01T01:02:22;3.63;;;3.33;;
9720;SDS011;4899;42.644;23.366;2023-03-01T01:04:48;3.00;;;2.80;;
9720;SDS011;4899;42.644;23.366;2023-03-01T01:07:14;3.07;;;2.87;;
9720;SDS011;4899;42.644;23.366;2023-03-01T01:09:40;3.83;;;3.40;;
9720;SDS011;4899;42.644;23.366;2023-03-01T01:12:06;3.60;;;3.30;;
9720;SDS011;4899;42.644;23.366;2023-03-01T01:14:32;3.83;;;3.17;;
9720;SDS011;4899;42.644;23.366;2023-03-01T01:16:58;2.93;;;2.73;;
9720;SDS011;4899;42.644;23.366;2023-03-01T01:19:23;2.97;;;2.77;;
9720;SDS011;4899;42.644;23.366;2023-03-01T01:21:50;3.00;;;2.80;;
9720;SDS011;4899;42.644;23.366;2023-03-01T01:24:16;2.50;;;2.30;;
9720;SDS011;4899;42.644;23.366;2023-03-01T01:26:42;2.80;;;2.60;;
9720;SDS011;4899;42.644;23.366;2023-03-01T01:29:08;2.60;;;2.40;;
9720;SDS011;4899;42.644;23.366;2023-03-01T01:31:35;2.70;;;2.50;;
9720;SDS011;4899;42.644;23.366;2023-03-01T01:34:02;2.73;;;2.53;;
9720;SDS011;4899;42.644;23.366;2023-03-01T01:36:29;2.73;;;2.53;;
9720;SDS011;4899;42.644;23.366;2023-03-01T01:38:55;2.17;;;2.07;;
9720;SDS011;4899;42.644;23.366;2023-03-01T01:41:22;2.00;;;1.90;;
9720;SDS011;4899;42.644;23.366;2023-03-01T01:43:49;2.47;;;2.37;;
9720;SDS011;4899;42.644;23.366;2023-03-01T01:46:37;2.43;;;2.23;;
9720;SDS011;4899;42.644;23.366;2023-03-01T01:49:07;2.00;;;1.90;;
9720;SDS011;4899;42.644;23.366;2023-03-01T01:51:59;2.13;;;2.03;;
9720;SDS011;4899;42.644;23.366;2023-03-01T01:54:32;2.10;;;2.00;;
9720;SDS011;4899;42.644;23.366;2023-03-01T01:57:20;2.10;;;1.83;;
9720;SDS011;4899;42.644;23.366;2023-03-01T01:59:55;2.30;;;2.20;;
9720;SDS011;4899;42.644;23.366;2023-03-01T02:02:23;2.23;;;2.13;;
9720;SDS011;4899;42.644;23.366;2023-03-01T02:04:52;2.20;;;2.10;;
9720;SDS011;4899;42.644;23.366;2023-03-01T02:07:24;2.10;;;2.00;;
9720;SDS011;4899;42.644;23.366;2023-03-01T02:09:50;2.13;;;2.03;;
9720;SDS011;4899;42.644;23.366;2023-03-01T02:12:18;2.10;;;2.00;;
9720;SDS011;4899;42.644;23.366;2023-03-01T02:14:46;2.20;;;2.00;;
9720;SDS011;4899;42.644;23.366;2023-03-01T02:17:12;1.90;;;1.80;;
9720;SDS011;4899;42.644;23.366;2023-03-01T02:22:15;1.73;;;1.63;;
9720;SDS011;4899;42.644;23.366;2023-03-01T02:27:17;1.93;;;1.83;;
9720;SDS011;4899;42.644;23.366;2023-03-01T02:29:46;2.33;;;2.23;;
9720;SDS011;4899;42.644;23.366;2023-03-01T02:32:12;2.20;;;2.10;;
9720;SDS011;4899;42.644;23.366;2023-03-01T02:34:40;2.30;;;2.10;;
9720;SDS011;4899;42.644;23.366;2023-03-01T02:37:10;2.17;;;2.07;;
9720;SDS011;4899;42.644;23.366;2023-03-01T02:39:40;2.47;;;2.37;;
9720;SDS011;4899;42.644;23.366;2023-03-01T02:42:13;2.40;;;2.30;;
9720;SDS011;4899;42.644;23.366;2023-03-01T02:44:41;2.40;;;2.30;;
9720;SDS011;4899;42.644;23.366;2023-03-01T02:47:07;2.60;;;2.50;;
9720;SDS011;4899;42.644;23.366;2023-03-01T02:49:34;2.30;;;2.20;;
9720;SDS011;4899;42.644;23.366;2023-03-01T02:54:43;2.83;;;2.50;;
9720;SDS011;4899;42.644;23.366;2023-03-01T02:57:21;3.37;;;3.07;;
9720;SDS011;4899;42.644;23.366;2023-03-01T02:59:47;3.27;;;3.07;;
9720;SDS011;4899;42.644;23.366;2023-03-01T03:02:25;3.70;;;3.40;;
9720;SDS011;4899;42.644;23.366;2023-03-01T03:05:02;3.43;;;3.13;;
9720;SDS011;4899;42.644;23.366;2023-03-01T03:07:28;3.23;;;2.93;;
9720;SDS011;4899;42.644;23.366;2023-03-01T03:09:54;4.00;;;3.70;;
9720;SDS011;4899;42.644;23.366;2023-03-01T03:12:19;4.30;;;4.00;;
9720;SDS011;4899;42.644;23.366;2023-03-01T03:14:44;4.07;;;3.77;;
9720;SDS011;4899;42.644;23.366;2023-03-01T03:17:10;4.43;;;4.13;;
9720;SDS011;4899;42.644;23.366;2023-03-01T03:19:35;5.00;;;4.60;;
9720;SDS011;4899;42.644;23.366;2023-03-01T03:22:01;4.90;;;4.50;;
9720;SDS011;4899;42.644;23.366;2023-03-01T03:24:26;4.70;;;4.30;;
9720;SDS011;4899;42.644;23.366;2023-03-01T03:27:03;5.17;;;4.77;;
9720;SDS011;4899;42.644;23.366;2023-03-01T03:29:29;6.40;;;5.90;;
9720;SDS011;4899;42.644;23.366;2023-03-01T03:31:54;6.00;;;5.50;;
9720;SDS011;4899;42.644;23.366;2023-03-01T03:34:19;5.97;;;5.37;;
9720;SDS011;4899;42.644;23.366;2023-03-01T03:36:45;5.80;;;5.30;;
9720;SDS011;4899;42.644;23.366;2023-03-01T03:39:10;5.00;;;4.60;;
9720;SDS011;4899;42.644;23.366;2023-03-01T03:41:36;5.20;;;4.80;;
9720;SDS011;4899;42.644;23.366;2023-03-01T03:44:01;4.93;;;4.53;;
9720;SDS011;4899;42.644;23.366;2023-03-01T03:46:26;4.67;;;4.27;;
9720;SDS011;4899;42.644;23.366;2023-03-01T03:48:52;4.17;;;3.87;;
9720;SDS011;4899;42.644;23.366;2023-03-01T03:51:18;4.27;;;3.97;;
9720;SDS011;4899;42.644;23.366;2023-03-01T03:53:44;4.00;;;3.70;;
9720;SDS011;4899;42.644;23.366;2023-03-01T03:56:10;4.20;;;3.90;;
9720;SDS011;4899;42.644;23.366;2023-03-01T03:58:36;3.90;;;3.60;;
9720;SDS011;4899;42.644;23.366;2023-03-01T04:01:02;3.17;;;2.90;;
9720;SDS011;4899;42.644;23.366;2023-03-01T04:03:28;3.30;;;3.00;;
9720;SDS011;4899;42.644;23.366;2023-03-01T04:05:57;3.30;;;3.10;;
9720;SDS011;4899;42.644;23.366;2023-03-01T04:08:23;3.57;;;2.97;;
9720;SDS011;4899;42.644;23.366;2023-03-01T04:10:50;2.63;;;2.43;;
9720;SDS011;4899;42.644;23.366;2023-03-01T04:13:18;2.93;;;2.73;;
9720;SDS011;4899;42.644;23.366;2023-03-01T04:15:46;3.00;;;2.80;;
9720;SDS011;4899;42.644;23.366;2023-03-01T04:18:15;3.17;;;2.97;;
9720;SDS011;4899;42.644;23.366;2023-03-01T04:20:43;3.20;;;3.00;;
9720;SDS011;4899;42.644;23.366;2023-03-01T04:23:11;3.23;;;2.93;;
9720;SDS011;4899;42.644;23.366;2023-03-01T04:28:23;2.93;;;2.73;;
9720;SDS011;4899;42.644;23.366;2023-03-01T04:30:51;3.27;;;2.97;;
9720;SDS011;4899;42.644;23.366;2023-03-01T04:33:18;2.83;;;2.63;;
9720;SDS011;4899;42.644;23.366;2023-03-01T04:35:44;3.00;;;2.80;;
9720;SDS011;4899;42.644;23.366;2023-03-01T04:38:09;3.23;;;2.93;;
9720;SDS011;4899;42.644;23.366;2023-03-01T04:40:35;3.57;;;3.27;;
9720;SDS011;4899;42.644;23.366;2023-03-01T04:43:03;2.83;;;2.63;;
9720;SDS011;4899;42.644;23.366;2023-03-01T04:45:29;3.47;;;3.17;;
9720;SDS011;4899;42.644;23.366;2023-03-01T04:47:54;3.43;;;3.13;;
9720;SDS011;4899;42.644;23.366;2023-03-01T04:50:23;3.27;;;2.97;;
9720;SDS011;4899;42.644;23.366;2023-03-01T04:52:49;3.50;;;3.20;;
9720;SDS011;4899;42.644;23.366;2023-03-01T04:55:15;3.20;;;3.00;;
9720;SDS011;4899;42.644;23.366;2023-03-01T04:57:41;4.37;;;3.43;;
9720;SDS011;4899;42.644;23.366;2023-03-01T05:00:07;4.13;;;3.73;;
9720;SDS011;4899;42.644;23.366;2023-03-01T05:02:48;4.70;;;3.30;;
9720;SDS011;4899;42.644;23.366;2023-03-01T05:05:22;3.37;;;3.07;;
9720;SDS011;4899;42.644;23.366;2023-03-01T05:08:05;4.40;;;4.00;;
9720;SDS011;4899;42.644;23.366;2023-03-01T05:10:32;4.37;;;3.97;;
9720;SDS011;4899;42.644;23.366;2023-03-01T05:13:00;3.90;;;3.50;;
9720;SDS011;4899;42.644;23.366;2023-03-01T05:15:28;3.87;;;3.57;;
9720;SDS011;4899;42.644;23.366;2023-03-01T05:17:55;4.67;;;4.20;;
9720;SDS011;4899;42.644;23.366;2023-03-01T05:20:24;4.43;;;4.03;;
9720;SDS011;4899;42.644;23.366;2023-03-01T05:22:51;4.17;;;3.77;;
9720;SDS011;4899;42.644;23.366;2023-03-01T05:25:19;4.00;;;3.57;;
9720;SDS011;4899;42.644;23.366;2023-03-01T05:27:46;3.50;;;3.20;;
9720;SDS011;4899;42.644;23.366;2023-03-01T05:30:12;3.90;;;3.60;;
9720;SDS011;4899;42.644;23.366;2023-03-01T05:32:44;3.40;;;3.10;;
9720;SDS011;4899;42.644;23.366;2023-03-01T05:35:11;3.57;;;3.27;;
9720;SDS011;4899;42.644;23.366;2023-03-01T05:37:47;3.63;;;3.30;;
9720;SDS011;4899;42.644;23.366;2023-03-01T05:40:23;3.70;;;3.07;;
9720;SDS011;4899;42.644;23.366;2023-03-01T05:42:55;3.00;;;2.70;;
9720;SDS011;4899;42.644;23.366;2023-03-01T05:45:22;3.80;;;3.40;;
9720;SDS011;4899;42.644;23.366;2023-03-01T05:47:49;3.53;;;3.13;;
9720;SDS011;4899;42.644;23.366;2023-03-01T05:50:17;4.67;;;3.07;;
9720;SDS011;4899;42.644;23.366;2023-03-01T05:52:49;2.27;;;2.17;;
9720;SDS011;4899;42.644;23.366;2023-03-01T05:55:17;2.60;;;2.40;;
9720;SDS011;4899;42.644;23.366;2023-03-01T05:57:44;2.77;;;2.57;;
9720;SDS011;4899;42.644;23.366;2023-03-01T06:00:10;2.87;;;2.67;;
9720;SDS011;4899;42.644;23.366;2023-03-01T06:02:37;3.20;;;3.00;;
9720;SDS011;4899;42.644;23.366;2023-03-01T06:05:03;2.50;;;2.30;;
9720;SDS011;4899;42.644;23.366;2023-03-01T06:07:30;2.57;;;2.37;;
9720;SDS011;4899;42.644;23.366;2023-03-01T06:09:56;2.43;;;2.23;;
9720;SDS011;4899;42.644;23.366;2023-03-01T06:12:22;5.67;;;2.77;;
9720;SDS011;4899;42.644;23.366;2023-03-01T06:14:47;2.90;;;2.70;;
9720;SDS011;4899;42.644;23.366;2023-03-01T06:17:13;2.30;;;2.20;;
9720;SDS011;4899;42.644;23.366;2023-03-01T06:19:38;3.23;;;2.57;;
9720;SDS011;4899;42.644;23.366;2023-03-01T06:22:04;2.60;;;2.40;;
9720;SDS011;4899;42.644;23.366;2023-03-01T06:24:29;2.70;;;2.50;;
9720;SDS011;4899;42.644;23.366;2023-03-01T06:26:55;2.87;;;2.67;;
9720;SDS011;4899;42.644;23.366;2023-03-01T06:29:20;3.90;;;2.70;;
9720;SDS011;4899;42.644;23.366;2023-03-01T06:31:48;3.13;;;2.60;;
9720;SDS011;4899;42.644;23.366;2023-03-01T06:34:14;3.27;;;2.97;;
9720;SDS011;4899;42.644;23.366;2023-03-01T06:36:39;3.23;;;3.00;;
9720;SDS011;4899;42.644;23.366;2023-03-01T06:39:05;3.47;;;3.17;;
9720;SDS011;4899;42.644;23.366;2023-03-01T06:41:32;3.17;;;2.90;;
9720;SDS011;4899;42.644;23.366;2023-03-01T06:43:58;3.47;;;3.17;;
9720;SDS011;4899;42.644;23.366;2023-03-01T06:46:25;3.27;;;2.93;;
9720;SDS011;4899;42.644;23.366;2023-03-01T06:48:50;3.00;;;2.80;;
9720;SDS011;4899;42.644;23.366;2023-03-01T06:51:16;5.03;;;2.50;;
9720;SDS011;4899;42.644;23.366;2023-03-01T06:53:41;2.53;;;2.33;;
9720;SDS011;4899;42.644;23.366;2023-03-01T06:56:07;2.93;;;2.67;;
9720;SDS011;4899;42.644;23.366;2023-03-01T06:58:32;4.27;;;2.93;;
9720;SDS011;4899;42.644;23.366;2023-03-01T07:00:58;3.03;;;2.50;;
9720;SDS011;4899;42.644;23.366;2023-03-01T07:03:23;2.57;;;2.37;;
9720;SDS011;4899;42.644;23.366;2023-03-01T07:05:49;2.83;;;2.40;;
9720;SDS011;4899;42.644;23.366;2023-03-01T07:08:17;2.30;;;2.20;;
9720;SDS011;4899;42.644;23.366;2023-03-01T07:10:43;2.80;;;2.60;;
9720;SDS011;4899;42.644;23.366;2023-03-01T07:13:09;2.87;;;2.67;;
9720;SDS011;4899;42.644;23.366;2023-03-01T07:15:34;5.37;;;2.90;;
9720;SDS011;4899;42.644;23.366;2023-03-01T07:18:00;2.30;;;2.17;;
9720;SDS011;4899;42.644;23.366;2023-03-01T07:20:25;2.70;;;2.50;;
9720;SDS011;4899;42.644;23.366;2023-03-01T07:22:51;2.50;;;2.30;;
9720;SDS011;4899;42.644;23.366;2023-03-01T07:25:17;6.20;;;2.47;;
9720;SDS011;4899;42.644;23.366;2023-03-01T07:27:43;2.70;;;2.13;;
9720;SDS011;4899;42.644;23.366;2023-03-01T07:30:08;2.50;;;2.30;;
9720;SDS011;4899;42.644;23.366;2023-03-01T07:32:34;3.23;;;2.93;;
9720;SDS011;4899;42.644;23.366;2023-03-01T07:35:00;2.80;;;2.60;;
9720;SDS011;4899;42.644;23.366;2023-03-01T07:37:26;3.00;;;2.80;;
9720;SDS011;4899;42.644;23.366;2023-03-01T07:39:51;2.83;;;2.43;;
9720;SDS011;4899;42.644;23.366;2023-03-01T07:42:16;2.33;;;2.13;;
9720;SDS011;4899;42.644;23.366;2023-03-01T07:44:42;2.73;;;2.27;;
9720;SDS011;4899;42.644;23.366;2023-03-01T07:47:07;2.30;;;2.20;;
9720;SDS011;4899;42.644;23.366;2023-03-01T07:49:33;2.43;;;2.23;;
9720;SDS011;4899;42.644;23.366;2023-03-01T07:51:59;2.70;;;2.50;;
9720;SDS011;4899;42.644;23.366;2023-03-01T07:54:25;4.23;;;2.30;;
9720;SDS011;4899;42.644;23.366;2023-03-01T07:56:51;2.60;;;2.40;;
9720;SDS011;4899;42.644;23.366;2023-03-01T07:59:16;2.97;;;2.40;;
9720;SDS011;4899;42.644;23.366;2023-03-01T08:01:42;3.73;;;2.30;;
9720;SDS011;4899;42.644;23.366;2023-03-01T08:04:08;2.20;;;2.10;;
9720;SDS011;4899;42.644;23.366;2023-03-01T08:06:34;2.13;;;2.00;;
9720;SDS011;4899;42.644;23.366;2023-03-01T08:09:00;4.03;;;2.40;;
9720;SDS011;4899;42.644;23.366;2023-03-01T08:11:26;3.40;;;2.10;;
9720;SDS011;4899;42.644;23.366;2023-03-01T08:13:53;2.90;;;2.60;;
9720;SDS011;4899;42.644;23.366;2023-03-01T08:16:19;2.17;;;1.97;;
9720;SDS011;4899;42.644;23.366;2023-03-01T08:18:44;1.87;;;1.73;;
9720;SDS011;4899;42.644;23.366;2023-03-01T08:21:14;2.73;;;2.00;;
9720;SDS011;4899;42.644;23.366;2023-03-01T08:23:41;1.63;;;1.57;;
9720;SDS011;4899;42.644;23.366;2023-03-01T08:26:09;2.30;;;2.10;;
9720;SDS011;4899;42.644;23.366;2023-03-01T08:28:45;3.10;;;2.57;;
9720;SDS011;4899;42.644;23.366;2023-03-01T08:33:40;2.40;;;2.20;;
9720;SDS011;4899;42.644;23.366;2023-03-01T08:36:06;2.77;;;2.57;;
9720;SDS011;4899;42.644;23.366;2023-03-01T08:38:33;2.27;;;2.07;;
9720;SDS011;4899;42.644;23.366;2023-03-01T08:41:00;2.57;;;2.37;;
9720;SDS011;4899;42.644;23.366;2023-03-01T08:43:26;3.10;;;2.77;;
9720;SDS011;4899;42.644;23.366;2023-03-01T08:45:52;2.40;;;2.30;;
9720;SDS011;4899;42.644;23.366;2023-03-01T08:48:17;2.30;;;2.10;;
9720;SDS011;4899;42.644;23.366;2023-03-01T08:50:42;2.83;;;2.63;;
9720;SDS011;4899;42.644;23.366;2023-03-01T08:53:08;2.83;;;2.47;;
9720;SDS011;4899;42.644;23.366;2023-03-01T08:55:33;3.20;;;2.60;;
9720;SDS011;4899;42.644;23.366;2023-03-01T08:57:59;2.20;;;2.10;;
9720;SDS011;4899;42.644;23.366;2023-03-01T09:00:24;2.47;;;2.37;;
9720;SDS011;4899;42.644;23.366;2023-03-01T09:02:52;3.10;;;2.80;;
9720;SDS011;4899;42.644;23.366;2023-03-01T09:05:17;3.40;;;3.10;;
9720;SDS011;4899;42.644;23.366;2023-03-01T09:07:43;3.00;;;2.80;;
9720;SDS011;4899;42.644;23.366;2023-03-01T09:10:08;3.17;;;2.90;;
9720;SDS011;4899;42.644;23.366;2023-03-01T09:12:34;3.27;;;2.90;;
9720;SDS011;4899;42.644;23.366;2023-03-01T09:15:00;2.70;;;2.50;;
9720;SDS011;4899;42.644;23.366;2023-03-01T09:17:25;3.13;;;2.83;;
9720;SDS011;4899;42.644;23.366;2023-03-01T09:19:51;3.17;;;2.47;;
9720;SDS011;4899;42.644;23.366;2023-03-01T09:22:16;2.73;;;2.40;;
9720;SDS011;4899;42.644;23.366;2023-03-01T09:24:42;3.00;;;2.80;;
9720;SDS011;4899;42.644;23.366;2023-03-01T09:27:08;3.03;;;2.70;;
9720;SDS011;4899;42.644;23.366;2023-03-01T09:29:37;2.20;;;2.10;;
9720;SDS011;4899;42.644;23.366;2023-03-01T09:32:02;2.17;;;1.97;;
9720;SDS011;4899;42.644;23.366;2023-03-01T09:34:28;2.37;;;2.13;;
9720;SDS011;4899;42.644;23.366;2023-03-01T09:36:54;4.43;;;2.47;;
9720;SDS011;4899;42.644;23.366;2023-03-01T09:39:19;1.80;;;1.70;;
9720;SDS011;4899;42.644;23.366;2023-03-01T09:47:23;2.23;;;1.73;;
9720;SDS011;4899;42.644;23.366;2023-03-01T10:06:26;1.97;;;1.80;;
9720;SDS011;4899;42.644;23.366;2023-03-01T10:08:58;3.03;;;1.80;;
9720;SDS011;4899;42.644;23.366;2023-03-01T10:11:31;1.70;;;1.60;;
9720;SDS011;4899;42.644;23.366;2023-03-01T10:16:46;2.10;;;1.90;;
9720;SDS011;4899;42.644;23.366;2023-03-01T10:19:24;4.37;;;1.90;;
9720;SDS011;4899;42.644;23.366;2023-03-01T10:21:55;3.57;;;2.20;;
9720;SDS011;4899;42.644;23.366;2023-03-01T10:24:27;1.90;;;1.80;;
9720;SDS011;4899;42.644;23.366;2023-03-01T10:27:01;2.07;;;1.67;;
9720;SDS011;4899;42.644;23.366;2023-03-01T10:29:46;3.73;;;1.60;;
9720;SDS011;4899;42.644;23.366;2023-03-01T10:32:28;2.30;;;2.03;;
9720;SDS011;4899;42.644;23.366;2023-03-01T10:34:54;1.57;;;1.47;;
9720;SDS011;4899;42.644;23.366;2023-03-01T10:37:20;2.23;;;2.10;;
9720;SDS011;4899;42.644;23.366;2023-03-01T10:40:03;2.43;;;2.23;;
9720;SDS011;4899;42.644;23.366;2023-03-01T10:42:46;1.83;;;1.73;;
9720;SDS011;4899;42.644;23.366;2023-03-01T10:47:53;3.70;;;2.03;;
9720;SDS011;4899;42.644;23.366;2023-03-01T10:58:32;2.13;;;2.03;;
9720;SDS011;4899;42.644;23.366;2023-03-01T11:01:01;2.07;;;1.60;;
9720;SDS011;4899;42.644;23.366;2023-03-01T11:03:29;4.07;;;2.17;;
9720;SDS011;4899;42.644;23.366;2023-03-01T11:05:58;3.20;;;2.60;;
9720;SDS011;4899;42.644;23.366;2023-03-01T11:08:36;1.83;;;1.73;;
9720;SDS011;4899;42.644;23.366;2023-03-01T11:11:15;1.97;;;1.87;;
9720;SDS011;4899;42.644;23.366;2023-03-01T11:13:51;2.10;;;2.00;;
9720;SDS011;4899;42.644;23.366;2023-03-01T11:16:38;6.37;;;2.20;;
9720;SDS011;4899;42.644;23.366;2023-03-01T11:21:34;2.33;;;2.13;;
9720;SDS011;4899;42.644;23.366;2023-03-01T11:24:05;5.50;;;2.30;;
9720;SDS011;4899;42.644;23.366;2023-03-01T11:26:35;2.20;;;2.10;;
9720;SDS011;4899;42.644;23.366;2023-03-01T11:29:07;2.67;;;2.47;;
9720;SDS011;4899;42.644;23.366;2023-03-01T11:31:40;2.67;;;2.47;;
9720;SDS011;4899;42.644;23.366;2023-03-01T11:34:51;2.60;;;2.40;;
9720;SDS011;4899;42.644;23.366;2023-03-01T11:37:30;2.50;;;2.40;;
9720;SDS011;4899;42.644;23.366;2023-03-01T11:39:54;3.10;;;2.80;;
9720;SDS011;4899;42.644;23.366;2023-03-01T11:51:16;3.10;;;2.80;;
9720;SDS011;4899;42.644;23.366;2023-03-01T11:59:20;5.10;;;3.87;;
9720;SDS011;4899;42.644;23.366;2023-03-01T12:07:37;3.13;;;2.93;;
9720;SDS011;4899;42.644;23.366;2023-03-01T12:18:23;3.43;;;3.23;;
9720;SDS011;4899;42.644;23.366;2023-03-01T12:39:33;3.83;;;3.53;;
9720;SDS011;4899;42.644;23.366;2023-03-01T12:42:27;4.10;;;3.80;;
9720;SDS011;4899;42.644;23.366;2023-03-01T12:50:37;3.43;;;3.23;;
9720;SDS011;4899;42.644;23.366;2023-03-01T12:53:07;3.90;;;3.50;;
9720;SDS011;4899;42.644;23.366;2023-03-01T12:55:45;3.13;;;2.90;;
9720;SDS011;4899;42.644;23.366;2023-03-01T13:11:52;4.10;;;3.40;;
9720;SDS011;4899;42.644;23.366;2023-03-01T13:16:48;2.97;;;2.77;;
9720;SDS011;4899;42.644;23.366;2023-03-01T13:21:40;3.67;;;3.40;;
9720;SDS011;4899;42.644;23.366;2023-03-01T13:29:49;3.70;;;3.40;;
9720;SDS011;4899;42.644;23.366;2023-03-01T13:32:22;4.10;;;3.80;;
9720;SDS011;4899;42.644;23.366;2023-03-01T13:34:50;3.60;;;3.30;;
9720;SDS011;4899;42.644;23.366;2023-03-01T13:37:22;8.83;;;7.97;;
9720;SDS011;4899;42.644;23.366;2023-03-01T13:39:51;3.50;;;3.20;;
9720;SDS011;4899;42.644;23.366;2023-03-01T13:42:31;3.53;;;3.30;;
9720;SDS011;4899;42.644;23.366;2023-03-01T13:45:00;3.60;;;3.37;;
9720;SDS011;4899;42.644;23.366;2023-03-01T13:47:26;3.60;;;3.30;;
9720;SDS011;4899;42.644;23.366;2023-03-01T13:49:59;3.77;;;3.47;;
9720;SDS011;4899;42.644;23.366;2023-03-01T13:55:16;3.20;;;3.00;;
9720;SDS011;4899;42.644;23.366;2023-03-01T14:01:00;3.63;;;3.33;;
9720;SDS011;4899;42.644;23.366;2023-03-01T14:03:31;3.10;;;2.83;;
9720;SDS011;4899;42.644;23.366;2023-03-01T14:08:27;3.10;;;2.90;;
9720;SDS011;4899;42.644;23.366;2023-03-01T14:10:58;3.27;;;2.97;;
9720;SDS011;4899;42.644;23.366;2023-03-01T14:19:18;4.77;;;3.27;;
9720;SDS011;4899;42.644;23.366;2023-03-01T14:21:57;5.80;;;3.50;;
9720;SDS011;4899;42.644;23.366;2023-03-01T14:24:44;2.93;;;2.73;;
9720;SDS011;4899;42.644;23.366;2023-03-01T14:27:17;3.20;;;2.90;;
9720;SDS011;4899;42.644;23.366;2023-03-01T14:29:45;3.03;;;2.83;;
9720;SDS011;4899;42.644;23.366;2023-03-01T14:32:21;3.97;;;3.10;;
9720;SDS011;4899;42.644;23.366;2023-03-01T14:34:50;3.37;;;3.07;;
9720;SDS011;4899;42.644;23.366;2023-03-01T14:37:27;5.40;;;3.37;;
9720;SDS011;4899;42.644;23.366;2023-03-01T14:39:57;5.47;;;3.13;;
9720;SDS011;4899;42.644;23.366;2023-03-01T14:42:27;3.77;;;3.47;;
9720;SDS011;4899;42.644;23.366;2023-03-01T14:44:55;4.70;;;3.10;;
9720;SDS011;4899;42.644;23.366;2023-03-01T14:47:32;4.70;;;2.87;;
9720;SDS011;4899;42.644;23.366;2023-03-01T14:52:45;6.53;;;2.60;;
9720;SDS011;4899;42.644;23.366;2023-03-01T14:55:17;4.33;;;3.07;;
9720;SDS011;4899;42.644;23.366;2023-03-01T14:57:47;4.60;;;2.97;;
9720;SDS011;4899;42.644;23.366;2023-03-01T15:00:17;5.40;;;3.17;;
9720;SDS011;4899;42.644;23.366;2023-03-01T15:02:47;3.33;;;3.00;;
9720;SDS011;4899;42.644;23.366;2023-03-01T15:05:15;3.40;;;3.10;;
9720;SDS011;4899;42.644;23.366;2023-03-01T15:07:45;3.97;;;3.50;;
9720;SDS011;4899;42.644;23.366;2023-03-01T15:10:24;3.87;;;3.57;;
9720;SDS011;4899;42.644;23.366;2023-03-01T15:12:52;3.43;;;3.17;;
9720;SDS011;4899;42.644;23.366;2023-03-01T15:15:19;4.10;;;3.70;;
9720;SDS011;4899;42.644;23.366;2023-03-01T15:17:58;4.23;;;3.83;;
9720;SDS011;4899;42.644;23.366;2023-03-01T15:20:26;4.10;;;3.80;;
9720;SDS011;4899;42.644;23.366;2023-03-01T15:22:54;5.40;;;4.13;;
9720;SDS011;4899;42.644;23.366;2023-03-01T15:25:27;4.70;;;4.30;;
9720;SDS011;4899;42.644;23.366;2023-03-01T15:27:55;5.53;;;5.03;;
9720;SDS011;4899;42.644;23.366;2023-03-01T15:30:27;4.33;;;3.93;;
9720;SDS011;4899;42.644;23.366;2023-03-01T15:36:02;4.00;;;3.70;;
9720;SDS011;4899;42.644;23.366;2023-03-01T15:38:52;5.87;;;3.90;;
9720;SDS011;4899;42.644;23.366;2023-03-01T15:41:24;7.57;;;3.80;;
9720;SDS011;4899;42.644;23.366;2023-03-01T15:44:17;4.57;;;4.17;;
9720;SDS011;4899;42.644;23.366;2023-03-01T15:46:50;4.47;;;4.17;;
9720;SDS011;4899;42.644;23.366;2023-03-01T15:52:04;4.37;;;3.97;;
9720;SDS011;4899;42.644;23.366;2023-03-01T15:54:38;4.10;;;3.70;;
9720;SDS011;4899;42.644;23.366;2023-03-01T15:57:08;3.87;;;3.57;;
9720;SDS011;4899;42.644;23.366;2023-03-01T15:59:38;4.60;;;3.57;;
9720;SDS011;4899;42.644;23.366;2023-03-01T16:02:08;5.27;;;3.60;;
9720;SDS011;4899;42.644;23.366;2023-03-01T16:04:37;3.60;;;3.20;;
9720;SDS011;4899;42.644;23.366;2023-03-01T16:07:04;5.30;;;3.30;;
9720;SDS011;4899;42.644;23.366;2023-03-01T16:09:29;3.47;;;3.17;;
9720;SDS011;4899;42.644;23.366;2023-03-01T16:11:55;3.80;;;3.50;;
9720;SDS011;4899;42.644;23.366;2023-03-01T16:14:20;3.57;;;3.27;;
9720;SDS011;4899;42.644;23.366;2023-03-01T16:16:47;4.87;;;3.60;;
9720;SDS011;4899;42.644;23.366;2023-03-01T16:19:16;4.00;;;3.60;;
9720;SDS011;4899;42.644;23.366;2023-03-01T16:21:42;4.67;;;3.60;;
9720;SDS011;4899;42.644;23.366;2023-03-01T16:24:08;4.33;;;3.93;;
9720;SDS011;4899;42.644;23.366;2023-03-01T16:26:35;4.10;;;3.47;;
9720;SDS011;4899;42.644;23.366;2023-03-01T16:29:02;4.10;;;3.70;;
9720;SDS011;4899;42.644;23.366;2023-03-01T16:31:28;4.40;;;4.00;;
9720;SDS011;4899;42.644;23.366;2023-03-01T16:33:57;5.10;;;4.20;;
9720;SDS011;4899;42.644;23.366;2023-03-01T16:36:24;4.70;;;4.13;;
9720;SDS011;4899;42.644;23.366;2023-03-01T16:38:51;5.53;;;4.60;;
9720;SDS011;4899;42.644;23.366;2023-03-01T16:41:19;5.43;;;4.23;;
9720;SDS011;4899;42.644;23.366;2023-03-01T16:43:46;5.77;;;4.30;;
9720;SDS011;4899;42.644;23.366;2023-03-01T16:46:13;6.33;;;4.63;;
9720;SDS011;4899;42.644;23.366;2023-03-01T16:48:49;4.53;;;4.13;;
9720;SDS011;4899;42.644;23.366;2023-03-01T16:51:15;4.60;;;3.90;;
9720;SDS011;4899;42.644;23.366;2023-03-01T16:53:41;4.47;;;3.70;;
9720;SDS011;4899;42.644;23.366;2023-03-01T16:56:08;4.30;;;3.80;;
9720;SDS011;4899;42.644;23.366;2023-03-01T16:58:36;4.10;;;3.57;;
9720;SDS011;4899;42.644;23.366;2023-03-01T17:01:09;5.33;;;3.37;;
9720;SDS011;4899;42.644;23.366;2023-03-01T17:03:37;4.20;;;3.70;;
9720;SDS011;4899;42.644;23.366;2023-03-01T17:06:07;5.20;;;3.90;;
9720;SDS011;4899;42.644;23.366;2023-03-01T17:08:35;3.20;;;2.90;;
9720;SDS011;4899;42.644;23.366;2023-03-01T17:11:04;7.43;;;3.90;;
9720;SDS011;4899;42.644;23.366;2023-03-01T17:13:32;4.50;;;3.40;;
9720;SDS011;4899;42.644;23.366;2023-03-01T17:15:59;4.03;;;3.23;;
9720;SDS011;4899;42.644;23.366;2023-03-01T17:18:24;4.33;;;3.77;;
9720;SDS011;4899;42.644;23.366;2023-03-01T17:20:50;3.50;;;3.30;;
9720;SDS011;4899;42.644;23.366;2023-03-01T17:23:15;3.70;;;3.40;;
9720;SDS011;4899;42.644;23.366;2023-03-01T17:25:44;4.00;;;3.67;;
9720;SDS011;4899;42.644;23.366;2023-03-01T17:28:11;4.47;;;3.83;;
9720;SDS011;4899;42.644;23.366;2023-03-01T17:30:37;5.10;;;4.63;;
9720;SDS011;4899;42.644;23.366;2023-03-01T17:33:05;4.00;;;3.60;;
9720;SDS011;4899;42.644;23.366;2023-03-01T17:35:31;5.73;;;4.27;;
9720;SDS011;4899;42.644;23.366;2023-03-01T17:38:01;4.90;;;4.43;;
9720;SDS011;4899;42.644;23.366;2023-03-01T17:40:26;6.97;;;5.30;;